METAR Data
IDs: Format: Raw Decoded Include TAF

Data at: 2214 UTC 23 Apr 2019

KCVN 232156Z AUTO 04014KT 10SM OVC009 11/09 A3010 RMK AO2 CIG 007V013 SLP183 T01060089
KCVN 232056Z AUTO 05012KT 10SM BKN009 OVC016 12/09 A3011 RMK AO2 CIG 008V012 SLP185 T01170094 56010
KCVN 231956Z AUTO 04012KT 10SM BKN009 OVC013 11/09 A3012 RMK AO2 CIG 007V011 SLP190 T01110089
KCVN 231856Z AUTO 05012KT 5SM BR OVC007 11/09 A3013 RMK AO2 CIG 005V010 SLP193 T01060094
KCVN 231756Z AUTO 04012KT 8SM OVC009 11/09 A3014 RMK AO2 SLP199 T01060089 10111 20094 50007
KCVN 231656Z AUTO 04014KT 10SM OVC009 11/09 A3015 RMK AO2 SLP199 T01060089
KCVN 231556Z AUTO 04013KT 10SM OVC007 10/09 A3014 RMK AO2 SLP197 T01000089
KCVN 231536Z AUTO 05017G22KT 10SM OVC007 10/09 A3013 RMK AO2
KCVN 231456Z AUTO 05015G23KT 10SM OVC005 10/09 A3012 RMK AO2 SLP189 T01000089 53004
KCVN 231356Z AUTO 03015KT 10SM OVC005 09/09 A3012 RMK AO2 SLP188 T00940089
KCVN 231256Z AUTO 02017KT 8SM BKN005 OVC085 09/09 A3011 RMK AO2 SLP184 T00940089
KCVN 231244Z AUTO 02016KT 8SM BKN005 OVC085 09/09 A3010 RMK AO2
KCVN 231234Z AUTO 02018KT 8SM SCT005 BKN090 09/09 A3010 RMK AO2
KCVN 231156Z AUTO 02013KT 9SM BKN007 OVC013 09/09 A3011 RMK AO2 RAE04 CIG 006V010 SLP182 P0001 60053 70053 T00940089 10100 20094 56003
KCVN 231119Z AUTO 01014KT 10SM BKN009 BKN015 BKN110 09/09 A3010 RMK AO2 RAE04 CIG 007V012 P0001
KCVN 231056Z AUTO 01011KT 10SM -RA SCT013 BKN070 OVC085 09/09 A3011 RMK AO2 SLP183 P0003 T00940089
KCVN 231019Z AUTO 01011KT 10SM -RA SCT012 BKN050 OVC080 09/09 A3011 RMK AO2 P0002
KCVN 231010Z AUTO 01010KT 8SM -RA FEW009 BKN015 OVC065 09/09 A3011 RMK AO2 CIG 013V026 P0002
KCVN 230956Z AUTO 36010KT 6SM -RA BR SCT007 BKN014 OVC060 09/09 A3011 RMK AO2 SLP182 P0016 T00940089
KCVN 230951Z AUTO 36009KT 5SM RA BR SCT007 BKN014 OVC060 09/09 A3012 RMK AO2 P0015
KCVN 230934Z AUTO 35006KT 6SM RA BR BKN007 BKN010 OVC038 09/09 A3012 RMK AO2 CIG 004V009 P0012
KCVN 230856Z AUTO 02005KT 5SM RA BR FEW007 BKN027 OVC043 09/09 A3013 RMK AO2 SLP186 P0030 60033 T00940089 50002
KCVN 230841Z AUTO 02007KT 4SM +RA BR FEW009 BKN035 OVC043 09/09 A3012 RMK AO2 P0025
KCVN 230825Z AUTO 01005KT 4SM +RA BR SCT011 BKN027 OVC033 09/09 A3012 RMK AO2 P0017
KCVN 230756Z AUTO 36006KT 8SM RA OVC007 09/09 A3013 RMK AO2 RAB0657 CIG 007V011 SLP189 P0003 T00940089
KCVN 230720Z AUTO 01012KT 10SM -RA BKN007 OVC015 09/09 A3012 RMK AO2 RAB0657 P0000
KCVN 230707Z AUTO 02013KT 10SM -RA SCT007 BKN015 OVC070 09/09 A3012 RMK AO2 RAB0657 P0000
KCVN 230656Z AUTO 02013KT 10SM FEW007 SCT015 OVC070 09/08 A3011 RMK AO2 LTG DSNT S AND SW SLP181 T00940083 401610083
KCVN 230556Z AUTO 04012KT 10SM SCT007 BKN075 OVC100 09/08 A3012 RMK AO2 SLP184 60000 T00940083 10133 20094 55003
KCVN 230456Z AUTO 04014KT 10SM BKN009 OVC016 10/09 A3011 RMK AO2 SLP181 T01000089
KCVN 230421Z AUTO 03012KT 10SM BKN009 BKN016 10/09 A3010 RMK AO2
KCVN 230411Z AUTO 04012KT 10SM FEW009 SCT016 10/09 A3010 RMK AO2
KCVN 230356Z AUTO 05015G19KT 10SM FEW016 SCT100 11/09 A3011 RMK AO2 RAE18 SLP185 P0000 T01060089
KCVN 230256Z AUTO 06011KT 10SM -RA FEW070 OVC100 11/09 A3013 RMK AO2 SLP190 P0000 60000 T01060094 53007
KCVN 230156Z AUTO 05013G19KT 10SM -RA FEW070 OVC100 11/09 A3010 RMK AO2 SLP182 P0000 T01110094
KCVN 230056Z AUTO 05013KT 10SM -RA OVC085 12/10 A3009 RMK AO2 SLP178 P0000 T01220100
KCVN 222356Z AUTO 08016G22KT 10SM -RA FEW040 SCT050 BKN075 13/10 A3010 RMK AO2 SLP182 P0000 60000 T01330100 10161 20133 55006
KCVN 222256Z AUTO 07017G22KT 10SM -RA SCT035 BKN050 OVC070 14/09 A3010 RMK AO2 RAB33 SLP176 P0000 T01390094
KCVN 222156Z AUTO 07014KT 10SM SCT033 SCT060 BKN085 15/08 A3012 RMK AO2 SLP183 T01500078
KCVN 222056Z AUTO 06014KT 10SM FEW100 16/07 A3012 RMK AO2 SLP184 T01560072 53003
KCVN 221956Z AUTO 07015KT 10SM SCT100 16/07 A3013 RMK AO2 PK WND 04031/1904 SLP189 T01560072
KCVN 221856Z AUTO 03024G28KT 10SM FEW110 15/07 A3007 RMK AO2 PK WND 05030/1825 SLP167 T01500072
KCVN 221756Z AUTO 02021G27KT 10SM SCT110 15/07 A3011 RMK AO2 PK WND 04033/1737 SLP183 T01500072 10150 20083 50004
KCVN 221656Z AUTO 03017G26KT 10SM FEW120 14/08 A3013 RMK AO2 PK WND 03026/1654 SLP184 T01390078
KCVN 221556Z AUTO 03022G26KT 10SM FEW014 12/07 A3011 RMK AO2 PK WND 03028/1545 SLP176 T01170072
KCVN 221456Z AUTO 03021KT 10SM FEW012 11/07 A3010 RMK AO2 PK WND 02029/1444 SLP174 T01110072 51021
KCVN 221356Z AUTO 02021G26KT 10SM CLR 10/07 A3009 RMK AO2 PK WND 01027/1338 SLP170 T01000067
KCVN 221256Z AUTO 01019G24KT 10SM CLR 09/06 A3006 RMK AO2 SLP152 T00890061
KCVN 221156Z AUTO 02014KT 10SM CLR 08/05 A3003 RMK AO2 SLP139 T00830050 10122 20083 50017